Time;durP1;ratioP1;P1;durP2;ratioP2;P2;SDS_P1;SDS_P2;PMS_P1;PMS_P2;Temp;Humidity;BMP_temperature;BMP_pressure;BME280_temperature;BME280_humidity;BME280_pressure;Samples;Min_cycle;Max_cycle;Signal;HPM_P1;HPM_P2
2022/01/25 00:08:20;;;;;;;45.10;22.60;;;3.90;99.90;;;;;;4899884;29;20107;-78
2022/01/25 00:28:40;;;;;;;48.67;22.38;;;3.90;99.90;;;;;;4899769;29;20103;-74
2022/01/25 00:33:33;;;;;;;49.33;23.50;;;3.90;99.90;;;;;;4916311;29;20110;-72
2022/01/25 00:36:01;;;;;;;47.58;23.23;;;3.90;99.90;;;;;;4916216;29;20469;-78
2022/01/25 00:38:27;;;;;;;47.92;24.83;;;3.90;99.90;;;;;;4916567;29;20052;-77
2022/01/25 00:40:53;;;;;;;47.17;22.35;;;3.90;99.90;;;;;;4898817;29;20060;-76
2022/01/25 00:43:23;;;;;;;51.30;24.42;;;3.90;99.90;;;;;;4899446;29;20441;-76
2022/01/25 00:45:52;;;;;;;53.65;25.15;;;3.90;99.90;;;;;;4899387;29;20083;-76
2022/01/25 00:48:19;;;;;;;50.78;24.50;;;3.90;99.90;;;;;;4899338;29;20044;-77
2022/01/25 00:50:48;;;;;;;48.33;22.85;;;3.90;99.90;;;;;;4898979;29;20048;-76
2022/01/25 00:55:58;;;;;;;47.83;22.65;;;3.80;99.90;;;;;;4898735;29;20060;-77
2022/01/25 00:58:23;;;;;;;50.70;23.08;;;3.80;99.90;;;;;;4899364;29;20179;-76
2022/01/25 01:00:50;;;;;;;48.55;22.90;;;3.80;99.90;;;;;;4916262;29;20068;-76
2022/01/25 01:03:16;;;;;;;46.08;22.48;;;3.80;99.90;;;;;;4916031;29;20051;-78
2022/01/25 01:05:42;;;;;;;49.92;23.73;;;3.80;99.90;;;;;;4883534;29;20512;-76
2022/01/25 01:08:08;;;;;;;49.40;23.05;;;3.80;99.90;;;;;;4916326;29;20404;-77
2022/01/25 01:10:33;;;;;;;49.38;22.85;;;3.80;99.90;;;;;;4915685;29;20056;-78
2022/01/25 01:13:28;;;;;;;50.75;22.92;;;3.80;99.90;;;;;;4899129;29;20052;-78
2022/01/25 01:16:43;;;;;;;47.22;22.42;;;3.80;99.90;;;;;;4902643;29;20067;-75
2022/01/25 01:29:29;;;;;;;50.38;23.35;;;3.80;99.90;;;;;;4919406;29;20503;-74
2022/01/25 01:32:03;;;;;;;46.40;21.60;;;3.80;99.90;;;;;;4919430;29;20048;-77
2022/01/25 01:44:52;;;;;;;45.72;22.63;;;3.80;99.90;;;;;;4919063;29;20059;-75
2022/01/25 01:47:35;;;;;;;45.90;22.50;;;3.80;99.90;;;;;;4902401;29;20048;-78
2022/01/25 01:50:02;;;;;;;45.55;22.23;;;3.80;99.90;;;;;;4919180;29;20119;-76
2022/01/25 01:52:28;;;;;;;46.95;22.10;;;3.80;99.90;;;;;;4919300;29;20055;-77
2022/01/25 01:54:54;;;;;;;46.70;21.52;;;3.80;99.90;;;;;;4919123;29;20056;-77
2022/01/25 01:57:20;;;;;;;49.72;23.73;;;3.80;99.90;;;;;;4919176;29;20452;-78
2022/01/25 01:59:46;;;;;;;47.92;22.58;;;3.80;99.90;;;;;;4918449;29;20052;-77
2022/01/25 02:02:11;;;;;;;52.05;24.73;;;3.80;99.90;;;;;;4902130;29;20064;-77
2022/01/25 02:04:37;;;;;;;47.17;22.98;;;3.80;99.90;;;;;;4919176;29;20056;-77
2022/01/25 02:07:03;;;;;;;51.70;23.45;;;3.80;99.90;;;;;;4902091;29;20130;-72
2022/01/25 02:09:29;;;;;;;47.42;21.75;;;3.80;99.90;;;;;;4918894;29;20052;-77
2022/01/25 02:11:54;;;;;;;49.25;22.98;;;3.80;99.90;;;;;;4918953;29;20044;-75
2022/01/25 02:14:20;;;;;;;44.42;22.23;;;3.80;99.90;;;;;;4918273;29;20119;-77
2022/01/25 02:24:43;;;;;;;52.15;23.10;;;3.80;99.90;;;;;;4901903;29;20083;-72
2022/01/25 02:27:09;;;;;;;48.70;23.23;;;3.80;99.90;;;;;;4918664;29;20040;-72
2022/01/25 02:29:35;;;;;;;51.47;22.48;;;3.80;99.90;;;;;;4901303;29;20390;-77
2022/01/25 02:32:02;;;;;;;46.90;22.13;;;3.80;99.90;;;;;;4918395;29;20519;-77
2022/01/25 02:34:27;;;;;;;45.65;22.60;;;3.80;99.90;;;;;;4918812;29;20048;-73
2022/01/25 02:37:05;;;;;;;50.80;23.30;;;3.80;99.90;;;;;;4918980;29;20052;-75
2022/01/25 02:39:32;;;;;;;48.42;22.67;;;3.80;99.90;;;;;;4901863;29;20055;-77
2022/01/25 02:41:58;;;;;;;50.45;23.15;;;3.80;99.90;;;;;;4918683;29;20048;-74
2022/01/25 02:44:26;;;;;;;51.25;23.77;;;3.80;99.90;;;;;;4936184;29;20124;-72
2022/01/25 02:49:30;;;;;;;50.97;23.20;;;3.70;99.90;;;;;;4938043;29;20119;-76
2022/01/25 02:51:56;;;;;;;47.53;23.67;;;3.80;99.90;;;;;;4913724;29;20077;-77
2022/01/25 02:54:22;;;;;;;54.47;24.10;;;3.70;99.90;;;;;;4910823;29;20066;-77
2022/01/25 02:56:48;;;;;;;51.10;23.42;;;3.70;99.90;;;;;;4904450;29;20139;-77
2022/01/25 02:59:16;;;;;;;53.15;24.08;;;3.70;99.90;;;;;;4901586;29;20056;-74
2022/01/25 03:01:51;;;;;;;53.15;24.63;;;3.80;99.90;;;;;;4918489;29;20103;-77
2022/01/25 03:04:19;;;;;;;52.72;24.08;;;3.80;99.90;;;;;;4918538;29;20106;-77
2022/01/25 03:06:44;;;;;;;52.97;24.40;;;3.80;99.90;;;;;;4918305;29;20052;-77
2022/01/25 03:09:11;;;;;;;49.00;23.65;;;3.80;99.90;;;;;;4901247;29;20460;-77
2022/01/25 03:11:37;;;;;;;50.55;24.52;;;3.70;99.90;;;;;;4917789;29;20052;-76
2022/01/25 03:14:08;;;;;;;51.03;23.85;;;3.70;99.90;;;;;;4917876;29;20184;-77
2022/01/25 03:16:43;;;;;;;47.40;23.33;;;3.70;99.90;;;;;;4900811;29;20056;-77
2022/01/25 03:21:58;;;;;;;52.90;25.13;;;3.70;99.90;;;;;;4921374;29;20052;-76
2022/01/25 03:24:24;;;;;;;50.58;24.33;;;3.70;99.90;;;;;;4917791;29;20526;-71
2022/01/25 03:26:50;;;;;;;50.70;24.35;;;3.70;99.90;;;;;;4917435;29;20400;-71
2022/01/25 03:29:16;;;;;;;49.55;23.80;;;3.70;99.90;;;;;;4900629;29;20051;-77
2022/01/25 03:31:41;;;;;;;51.90;24.83;;;3.70;99.90;;;;;;4917349;29;20064;-75
2022/01/25 03:34:07;;;;;;;54.08;25.98;;;3.70;99.90;;;;;;4916963;29;20044;-73
2022/01/25 03:36:33;;;;;;;51.17;25.75;;;3.70;99.90;;;;;;4899364;29;20099;-75
2022/01/25 03:38:59;;;;;;;49.50;23.20;;;3.70;99.90;;;;;;4917182;29;20048;-72
2022/01/25 03:41:26;;;;;;;52.65;24.58;;;4.00;99.90;;;;;;4917236;29;20040;-72
2022/01/25 03:43:56;;;;;;;51.75;23.63;;;3.70;99.90;;;;;;4917095;29;20091;-76
2022/01/25 03:46:34;;;;;;;53.67;24.42;;;3.70;99.90;;;;;;4900168;29;20123;-71
2022/01/25 03:51:45;;;;;;;53.08;23.15;;;3.70;99.90;;;;;;4900011;29;20082;-71
2022/01/25 03:54:11;;;;;;;52.60;25.25;;;3.70;99.90;;;;;;4916915;29;20389;-70
2022/01/25 03:56:37;;;;;;;51.65;24.33;;;4.60;99.90;;;;;;4900261;29;20131;-69
2022/01/25 03:59:05;;;;;;;53.80;25.90;;;3.70;99.90;;;;;;4916892;29;20036;-71
2022/01/25 04:01:31;;;;;;;47.70;23.67;;;3.70;99.90;;;;;;4900027;29;20408;-72
2022/01/25 04:04:02;;;;;;;55.35;26.27;;;3.70;99.90;;;;;;4916547;29;20106;-71
2022/01/25 04:06:33;;;;;;;55.28;25.15;;;3.70;99.90;;;;;;4916760;29;20052;-71
2022/01/25 04:09:00;;;;;;;49.85;24.33;;;3.70;99.90;;;;;;4916932;29;20079;-72
2022/01/25 04:11:26;;;;;;;52.10;24.33;;;3.70;99.90;;;;;;4916595;29;20055;-73
2022/01/25 04:13:54;;;;;;;57.08;25.73;;;3.70;99.90;;;;;;4899550;29;20044;-72
2022/01/25 04:16:25;;;;;;;53.97;25.92;;;3.70;99.90;;;;;;4916529;29;20051;-71
2022/01/25 04:26:51;;;;;;;56.80;25.70;;;3.60;99.90;;;;;;4916483;29;20501;-75
2022/01/25 04:29:17;;;;;;;51.67;24.15;;;3.60;99.90;;;;;;4899535;29;20052;-76
2022/01/25 04:31:43;;;;;;;54.17;26.05;;;3.60;99.90;;;;;;4899497;29;20405;-76
2022/01/25 04:34:26;;;;;;;52.95;25.48;;;3.60;99.90;;;;;;4899520;29;20044;-75
2022/01/25 04:48:49;;;;;;;53.45;25.77;;;3.60;99.90;;;;;;4915984;29;20408;-75
2022/01/25 04:55:44;;;;;;;57.40;26.42;;;3.60;99.90;;;;;;4919984;29;20103;-77
2022/01/25 04:58:18;;;;;;;53.53;25.58;;;3.70;99.90;;;;;;4920063;29;20166;-75
2022/01/25 05:00:46;;;;;;;56.97;26.33;;;3.60;99.90;;;;;;4903252;29;20401;-77
2022/01/25 05:03:16;;;;;;;54.63;25.33;;;3.60;99.90;;;;;;4919747;29;20048;-74
2022/01/25 05:05:55;;;;;;;50.40;24.33;;;3.70;99.90;;;;;;4886989;29;20059;-72
2022/01/25 05:11:04;;;;;;;55.42;26.25;;;4.20;99.90;;;;;;4902721;29;20056;-77
2022/01/25 05:18:40;;;;;;;52.65;24.80;;;3.70;99.90;;;;;;4919856;29;20515;-78
2022/01/25 05:23:50;;;;;;;52.67;24.98;;;3.70;99.90;;;;;;4918999;29;20056;-76
2022/01/25 05:26:16;;;;;;;53.17;25.48;;;3.70;99.90;;;;;;4919583;29;20059;-77
2022/01/25 05:28:42;;;;;;;53.80;25.00;;;3.90;99.90;;;;;;4902589;29;20485;-73
2022/01/25 05:31:07;;;;;;;48.97;24.05;;;4.00;99.90;;;;;;4886835;29;20044;-78
2022/01/25 05:33:33;;;;;;;55.58;24.13;;;3.70;99.90;;;;;;4919357;29;20092;-76
2022/01/25 05:35:58;;;;;;;57.65;26.38;;;3.70;99.90;;;;;;4919473;29;20051;-73
2022/01/25 05:38:24;;;;;;;57.67;25.80;;;3.70;99.90;;;;;;4919255;29;20052;-76
2022/01/25 05:41:01;;;;;;;53.95;25.52;;;4.20;99.90;;;;;;4919169;29;20221;-76
2022/01/25 05:46:16;;;;;;;55.95;25.98;;;3.70;99.90;;;;;;4902452;29;20111;-73
2022/01/25 05:48:42;;;;;;;55.83;24.88;;;3.70;99.90;;;;;;4919266;29;20052;-76
2022/01/25 05:51:09;;;;;;;58.30;26.00;;;3.70;99.90;;;;;;4901900;29;20087;-72
2022/01/25 05:53:35;;;;;;;55.85;24.73;;;3.70;99.90;;;;;;4902294;29;20079;-72
2022/01/25 05:56:01;;;;;;;54.83;25.60;;;3.70;99.90;;;;;;4918398;29;20508;-73
2022/01/25 05:58:26;;;;;;;57.70;27.23;;;3.70;99.90;;;;;;4902079;29;20126;-78
2022/01/25 06:00:52;;;;;;;51.00;24.73;;;3.80;99.90;;;;;;4918467;29;20115;-77
2022/01/25 06:03:18;;;;;;;53.92;25.75;;;3.70;99.90;;;;;;4918854;29;20048;-72
2022/01/25 06:05:44;;;;;;;57.17;25.73;;;3.70;99.90;;;;;;4918800;29;20040;-78
2022/01/25 06:08:10;;;;;;;55.67;25.05;;;3.70;99.90;;;;;;4918928;29;20098;-71
2022/01/25 06:10:37;;;;;;;56.75;26.05;;;3.70;99.90;;;;;;4918597;29;20131;-72
2022/01/25 06:13:04;;;;;;;53.67;24.60;;;4.00;99.90;;;;;;4918413;29;20048;-71
2022/01/25 06:15:29;;;;;;;54.95;25.67;;;3.70;99.90;;;;;;4919016;29;20123;-77
2022/01/25 06:17:55;;;;;;;53.17;24.45;;;3.70;99.90;;;;;;4918841;29;20119;-76
2022/01/25 06:20:21;;;;;;;54.00;24.52;;;3.70;99.90;;;;;;4901768;29;20099;-72
2022/01/25 06:22:47;;;;;;;60.35;26.67;;;3.70;99.90;;;;;;4901400;29;20564;-72
2022/01/25 06:25:13;;;;;;;57.53;27.33;;;4.20;99.90;;;;;;4918064;29;20052;-76
2022/01/25 06:27:40;;;;;;;56.17;25.05;;;3.70;99.90;;;;;;4917968;29;20044;-74
2022/01/25 06:30:08;;;;;;;53.95;26.80;;;3.70;99.90;;;;;;4918535;29;20165;-72
2022/01/25 06:32:34;;;;;;;51.72;24.75;;;3.70;99.90;;;;;;4918576;29;20055;-73
2022/01/25 06:35:00;;;;;;;56.78;26.67;;;3.70;99.90;;;;;;4901612;29;20119;-74
2022/01/25 06:37:26;;;;;;;55.47;25.08;;;3.70;99.90;;;;;;4901279;29;20453;-72
2022/01/25 06:39:52;;;;;;;61.33;25.98;;;3.70;99.90;;;;;;4918402;29;20040;-70
2022/01/25 06:42:18;;;;;;;57.20;25.58;;;3.70;99.90;;;;;;4917874;29;20048;-70
2022/01/25 06:44:43;;;;;;;51.67;18.13;;;3.70;99.90;;;;;;4947360;29;20058;-73
2022/01/25 06:47:09;;;;;;;41.63;17.40;;;3.70;99.90;;;;;;4950329;29;20052;-71
2022/01/25 06:49:34;;;;;;;43.85;17.85;;;3.70;99.90;;;;;;4943841;29;20052;-70
2022/01/25 06:52:00;;;;;;;46.10;17.17;;;3.70;99.90;;;;;;4923702;29;20048;-72
2022/01/25 06:54:26;;;;;;;42.42;15.57;;;3.70;99.90;;;;;;4936757;29;20066;-70
2022/01/25 06:56:51;;;;;;;39.15;15.30;;;3.70;99.90;;;;;;4936169;29;20098;-73
2022/01/25 06:59:17;;;;;;;33.80;15.55;;;3.70;99.90;;;;;;4918888;29;20099;-71
2022/01/25 07:01:43;;;;;;;51.80;19.77;;;3.70;99.90;;;;;;4918870;29;20384;-71
2022/01/25 07:04:08;;;;;;;45.20;18.27;;;3.70;99.90;;;;;;4918907;29;20052;-72
2022/01/25 07:06:34;;;;;;;47.17;18.65;;;3.70;99.90;;;;;;4918916;29;20048;-72
2022/01/25 07:09:02;;;;;;;41.53;16.35;;;3.70;99.90;;;;;;4918292;29;20547;-73
2022/01/25 07:11:29;;;;;;;45.15;17.55;;;3.70;99.90;;;;;;4918943;29;20513;-72
2022/01/25 07:13:55;;;;;;;37.60;16.73;;;3.60;99.90;;;;;;4936568;29;20040;-71
2022/01/25 07:16:21;;;;;;;44.03;17.58;;;3.70;99.90;;;;;;4936696;29;20048;-71
2022/01/25 07:18:46;;;;;;;40.08;14.57;;;3.60;99.90;;;;;;4936648;29;20059;-70
2022/01/25 07:21:12;;;;;;;34.50;15.07;;;3.60;99.90;;;;;;4932402;29;20082;-71
2022/01/25 07:23:38;;;;;;;35.17;14.70;;;3.70;99.90;;;;;;4936213;29;20039;-73
2022/01/25 07:26:03;;;;;;;39.70;14.65;;;3.60;99.90;;;;;;4918200;29;20477;-73
2022/01/25 07:28:29;;;;;;;34.88;14.35;;;3.60;99.90;;;;;;4935848;29;20131;-74
2022/01/25 07:30:55;;;;;;;36.05;14.27;;;3.60;99.90;;;;;;4918111;29;20055;-73
2022/01/25 07:33:20;;;;;;;49.67;17.10;;;3.70;99.90;;;;;;4918421;29;20055;-72
2022/01/25 07:35:46;;;;;;;39.65;13.60;;;3.60;99.90;;;;;;4935352;29;20047;-73
2022/01/25 07:38:15;;;;;;;44.45;12.98;;;3.60;99.90;;;;;;4935302;29;20576;-72
2022/01/25 07:40:42;;;;;;;43.38;13.88;;;3.60;99.90;;;;;;4918806;29;20515;-71
2022/01/25 07:43:08;;;;;;;36.55;13.40;;;3.70;99.90;;;;;;4935142;29;20043;-72
2022/01/25 07:45:35;;;;;;;41.45;13.55;;;3.60;99.90;;;;;;4934972;29;20050;-72
2022/01/25 07:48:09;;;;;;;38.63;13.85;;;3.60;99.90;;;;;;4935197;29;20050;-74
2022/01/25 07:50:35;;;;;;;42.33;13.25;;;3.60;99.90;;;;;;4935241;29;20086;-73
2022/01/25 07:53:01;;;;;;;43.95;15.32;;;3.70;99.90;;;;;;4935101;29;20063;-71
2022/01/25 07:55:27;;;;;;;38.90;13.80;;;3.80;99.90;;;;;;4934953;29;20056;-71
2022/01/25 07:57:53;;;;;;;38.80;13.73;;;4.10;99.90;;;;;;4932148;29;20095;-73
2022/01/25 08:00:19;;;;;;;42.70;14.35;;;3.70;99.90;;;;;;4925206;29;20182;-71
2022/01/25 08:02:46;;;;;;;43.33;15.15;;;3.70;99.90;;;;;;4925070;29;20055;-70
2022/01/25 08:05:17;;;;;;;35.13;14.00;;;3.70;99.90;;;;;;4905798;29;20067;-72
2022/01/25 08:07:43;;;;;;;40.05;13.48;;;3.70;99.90;;;;;;4919868;29;20482;-71
2022/01/25 08:10:09;;;;;;;44.90;14.65;;;4.60;99.90;;;;;;4915695;29;20085;-71
2022/01/25 08:12:35;;;;;;;38.50;13.38;;;3.70;99.90;;;;;;4916014;29;20143;-72
2022/01/25 08:15:03;;;;;;;36.88;15.52;;;3.70;99.90;;;;;;4915691;29;20212;-73
2022/01/25 08:17:29;;;;;;;37.95;14.15;;;3.70;99.90;;;;;;4915251;29;20056;-73
2022/01/25 08:19:55;;;;;;;40.67;13.75;;;3.70;99.90;;;;;;4915860;29;20415;-72
2022/01/25 08:22:21;;;;;;;36.97;12.88;;;3.70;99.90;;;;;;4898803;29;20040;-71
2022/01/25 08:24:46;;;;;;;30.42;12.82;;;3.70;99.90;;;;;;4915494;29;20501;-72
2022/01/25 08:27:12;;;;;;;36.42;15.13;;;4.30;99.90;;;;;;4915500;29;20048;-72
2022/01/25 08:29:38;;;;;;;39.15;12.82;;;3.70;99.90;;;;;;4898523;29;20112;-74
2022/01/25 08:32:05;;;;;;;38.38;12.68;;;3.70;99.90;;;;;;4915275;29;20075;-70
2022/01/25 08:34:31;;;;;;;40.17;12.55;;;3.70;99.90;;;;;;4915397;29;20079;-70
2022/01/25 08:36:58;;;;;;;36.17;11.75;;;3.70;99.90;;;;;;4902449;29;20122;-71
2022/01/25 08:39:26;;;;;;;45.33;14.85;;;3.70;99.90;;;;;;4933430;29;20062;-72
2022/01/25 08:41:52;;;;;;;32.88;11.57;;;3.70;99.90;;;;;;4931330;29;20052;-73
2022/01/25 08:44:18;;;;;;;35.97;12.82;;;3.70;99.90;;;;;;4914823;29;20602;-72
2022/01/25 08:46:44;;;;;;;32.53;13.02;;;3.80;99.90;;;;;;4934342;29;20056;-72
2022/01/25 08:49:10;;;;;;;45.72;13.40;;;3.80;99.90;;;;;;4933544;29;20044;-72
2022/01/25 08:51:36;;;;;;;30.58;12.32;;;3.80;99.90;;;;;;4917563;29;20050;-73
2022/01/25 08:54:01;;;;;;;40.05;13.15;;;3.90;99.90;;;;;;4915113;29;20392;-74
2022/01/25 08:56:27;;;;;;;33.35;11.32;;;3.90;99.90;;;;;;4896434;29;20080;-72
2022/01/25 08:58:54;;;;;;;32.75;11.40;;;3.90;99.90;;;;;;4912384;29;20055;-70
2022/01/25 09:01:19;;;;;;;42.72;13.48;;;3.90;99.90;;;;;;4912542;29;20062;-70
2022/01/25 09:03:45;;;;;;;38.55;12.65;;;3.90;99.90;;;;;;4892703;29;20135;-72
2022/01/25 09:06:11;;;;;;;37.53;13.02;;;3.90;99.90;;;;;;4906152;29;20058;-69
2022/01/25 09:08:37;;;;;;;41.25;12.93;;;3.90;99.90;;;;;;4915048;29;20418;-72
2022/01/25 09:11:04;;;;;;;33.97;13.48;;;3.90;99.90;;;;;;4931470;29;20051;-72
2022/01/25 09:13:31;;;;;;;38.58;13.65;;;4.10;99.90;;;;;;4881809;29;20476;-78
2022/01/25 09:15:58;;;;;;;32.03;12.85;;;3.90;99.90;;;;;;4909894;29;20131;-74
2022/01/25 09:18:24;;;;;;;34.63;12.30;;;3.90;99.90;;;;;;4932677;29;20055;-74
2022/01/25 09:20:49;;;;;;;31.23;12.90;;;3.90;99.90;;;;;;4931969;29;20044;-75
2022/01/25 09:23:18;;;;;;;49.97;15.07;;;3.90;99.90;;;;;;4929354;29;20063;-71
2022/01/25 09:25:43;;;;;;;41.97;13.20;;;3.90;99.90;;;;;;4932018;29;20251;-71
2022/01/25 09:28:11;;;;;;;38.10;13.25;;;3.90;99.90;;;;;;4930385;29;20050;-72
2022/01/25 09:30:40;;;;;;;38.28;12.38;;;3.90;99.90;;;;;;4932270;29;20127;-78
2022/01/25 09:33:06;;;;;;;33.72;11.75;;;4.10;99.90;;;;;;4912685;29;20059;-72
2022/01/25 09:35:32;;;;;;;37.33;12.30;;;3.90;99.90;;;;;;4916252;29;20039;-71
2022/01/25 09:37:58;;;;;;;34.85;13.55;;;3.90;99.90;;;;;;4916712;29;20081;-74
2022/01/25 09:40:25;;;;;;;36.22;13.77;;;3.90;99.90;;;;;;4918138;29;20063;-71
2022/01/25 09:42:55;;;;;;;37.00;15.10;;;3.90;99.90;;;;;;4934015;29;20098;-72
2022/01/25 09:45:21;;;;;;;36.00;14.50;;;3.90;99.90;;;;;;4913453;29;20396;-73
2022/01/25 09:47:47;;;;;;;35.00;11.98;;;4.10;99.90;;;;;;4932396;29;20043;-74
2022/01/25 09:50:15;;;;;;;40.38;13.07;;;4.70;99.90;;;;;;4931854;29;20059;-75
2022/01/25 09:52:45;;;;;;;36.05;13.23;;;3.90;99.90;;;;;;4932802;29;20126;-75
2022/01/25 09:55:14;;;;;;;31.48;11.63;;;3.90;99.90;;;;;;4926180;29;20515;-71
2022/01/25 09:57:40;;;;;;;40.03;13.63;;;4.00;99.90;;;;;;4929486;29;20072;-75
2022/01/25 10:00:08;;;;;;;37.13;12.48;;;4.00;99.90;;;;;;4927551;29;20048;-76
2022/01/25 10:05:37;;;;;;;37.08;14.23;;;5.20;99.90;;;;;;4918358;29;20133;-80
2022/01/25 10:08:09;;;;;;;34.10;14.02;;;4.00;99.90;;;;;;4922396;29;20036;-84
2022/01/25 10:10:56;;;;;;;31.38;11.90;;;4.00;99.90;;;;;;4927661;29;20036;-74
2022/01/25 10:13:33;;;;;;;42.08;14.07;;;4.10;99.90;;;;;;4923887;29;20048;-73
2022/01/25 10:16:19;;;;;;;39.22;13.50;;;4.10;99.90;;;;;;4933922;29;20048;-75
2022/01/25 10:18:53;;;;;;;39.83;14.05;;;4.10;99.90;;;;;;4924685;29;20047;-77
2022/01/25 10:21:24;;;;;;;34.47;13.00;;;4.10;99.90;;;;;;4908894;29;20056;-75
2022/01/25 10:24:17;;;;;;;33.00;13.95;;;4.10;99.90;;;;;;4909061;29;20046;-74
2022/01/25 10:26:59;;;;;;;36.10;12.40;;;4.20;99.90;;;;;;4926551;29;20052;-72
2022/01/25 10:29:26;;;;;;;37.00;12.35;;;4.20;99.90;;;;;;4926968;29;20043;-72
2022/01/25 10:31:57;;;;;;;36.15;13.90;;;4.20;99.90;;;;;;4925855;29;20071;-74
2022/01/25 10:34:46;;;;;;;27.17;10.25;;;4.20;99.90;;;;;;4926983;29;20054;-73
2022/01/25 10:37:16;;;;;;;36.42;14.25;;;4.20;99.90;;;;;;4903987;29;20160;-74
2022/01/25 10:39:48;;;;;;;29.23;12.00;;;4.20;99.90;;;;;;4927313;29;20074;-74
2022/01/25 10:42:26;;;;;;;28.80;13.20;;;4.20;99.90;;;;;;4919519;29;20056;-73
2022/01/25 10:44:54;;;;;;;39.85;14.43;;;4.30;99.90;;;;;;4915715;29;20047;-73
2022/01/25 10:47:42;;;;;;;38.67;14.85;;;4.20;99.90;;;;;;4922528;29;20128;-73
2022/01/25 10:50:20;;;;;;;41.03;14.05;;;4.20;99.90;;;;;;4910077;29;20044;-74
2022/01/25 10:52:47;;;;;;;44.05;14.00;;;4.20;99.90;;;;;;4910613;29;20052;-70
2022/01/25 10:55:16;;;;;;;46.30;15.60;;;4.20;99.90;;;;;;4916705;29;20060;-74
2022/01/25 10:57:42;;;;;;;43.95;14.30;;;4.20;99.90;;;;;;4917030;29;20115;-72
2022/01/25 11:00:11;;;;;;;47.13;14.60;;;4.20;99.90;;;;;;4917139;29;20390;-72
2022/01/25 11:02:49;;;;;;;39.20;13.57;;;4.20;99.90;;;;;;4900250;29;20051;-71
2022/01/25 11:05:14;;;;;;;42.75;15.27;;;4.20;99.90;;;;;;4908094;29;20063;-74
2022/01/25 11:07:46;;;;;;;38.33;14.52;;;4.20;99.90;;;;;;4907569;29;20051;-72
2022/01/25 11:10:20;;;;;;;41.53;13.38;;;4.20;99.90;;;;;;4925737;29;20046;-74
2022/01/25 11:13:01;;;;;;;39.35;12.30;;;4.20;99.90;;;;;;4926912;29;20382;-73
2022/01/25 11:15:27;;;;;;;42.83;11.93;;;4.20;99.90;;;;;;4923864;29;20044;-72
2022/01/25 11:17:53;;;;;;;43.13;14.90;;;4.20;99.90;;;;;;4925019;29;20395;-71
2022/01/25 11:20:18;;;;;;;35.38;14.90;;;4.20;99.90;;;;;;4924427;29;20048;-72
2022/01/25 11:22:45;;;;;;;39.78;14.88;;;4.20;99.90;;;;;;4925982;29;20090;-72
2022/01/25 11:25:13;;;;;;;43.75;11.98;;;4.20;99.90;;;;;;4923628;29;20099;-72
2022/01/25 11:27:41;;;;;;;36.20;11.45;;;4.20;99.90;;;;;;4916335;29;20484;-72
2022/01/25 11:30:11;;;;;;;32.30;11.55;;;4.20;99.90;;;;;;4916426;29;20048;-72
2022/01/25 11:32:42;;;;;;;38.95;13.27;;;4.20;99.90;;;;;;4934034;29;20134;-73
2022/01/25 11:35:13;;;;;;;45.75;14.85;;;4.20;99.90;;;;;;4920446;29;20043;-71
2022/01/25 11:37:45;;;;;;;37.65;12.95;;;4.20;99.90;;;;;;4903909;29;20056;-72
2022/01/25 11:40:22;;;;;;;42.45;13.68;;;4.20;99.90;;;;;;4935258;29;20055;-70
2022/01/25 11:42:50;;;;;;;43.50;14.02;;;4.30;99.90;;;;;;4915424;29;20066;-72
2022/01/25 11:45:23;;;;;;;43.22;12.77;;;4.80;99.90;;;;;;4935631;29;20547;-74
2022/01/25 11:47:50;;;;;;;39.53;12.40;;;4.30;99.90;;;;;;4936303;29;20404;-72
2022/01/25 11:50:16;;;;;;;34.08;11.80;;;4.30;99.90;;;;;;4935964;29;20182;-71
2022/01/25 11:52:53;;;;;;;41.65;14.05;;;4.20;99.90;;;;;;4930290;29;20123;-72
2022/01/25 11:55:21;;;;;;;36.17;13.20;;;4.20;99.90;;;;;;4922820;29;20071;-81
2022/01/25 11:57:54;;;;;;;31.63;12.30;;;4.20;99.90;;;;;;4924732;29;20071;-77
2022/01/25 12:00:46;;;;;;;37.90;13.60;;;4.20;99.90;;;;;;4925375;29;20415;-80
2022/01/25 12:03:19;;;;;;;50.42;15.27;;;4.20;99.90;;;;;;4925904;29;20533;-73
2022/01/25 12:06:13;;;;;;;36.92;12.48;;;5.20;99.90;;;;;;4925687;29;20427;-80
2022/01/25 12:11:39;;;;;;;39.95;13.57;;;4.20;99.90;;;;;;4931187;29;20530;-77
2022/01/25 12:14:28;;;;;;;;;;;4.20;99.90;;;;;;4928563;29;20056;-76
2022/01/25 12:17:09;;;;;;;36.65;13.20;;;4.20;99.90;;;;;;4836281;29;19939;-70
2022/01/25 12:19:57;;;;;;;41.58;13.05;;;4.20;99.90;;;;;;4841464;29;20530;-77
2022/01/25 12:22:40;;;;;;;36.75;13.05;;;4.20;99.90;;;;;;4841649;29;20073;-71
2022/01/25 12:25:21;;;;;;;38.85;11.90;;;4.20;99.90;;;;;;4837375;29;20080;-71
2022/01/25 12:27:56;;;;;;;36.60;14.27;;;4.20;99.90;;;;;;4839246;29;20061;-70
2022/01/25 12:30:38;;;;;;;31.45;12.32;;;4.20;99.90;;;;;;4840216;29;20103;-73
2022/01/25 12:33:09;;;;;;;36.97;13.60;;;4.20;99.90;;;;;;4827162;29;20072;-74
2022/01/25 12:35:50;;;;;;;30.55;11.43;;;4.20;99.90;;;;;;4827244;29;20526;-71
2022/01/25 12:38:31;;;;;;;45.45;14.18;;;4.20;99.90;;;;;;4834160;29;20065;-71
2022/01/25 12:41:10;;;;;;;36.00;13.55;;;4.20;99.90;;;;;;4826137;29;20121;-72
2022/01/25 12:43:44;;;;;;;38.40;13.65;;;4.20;99.90;;;;;;4827587;29;20842;-70
2022/01/25 12:46:24;;;;;;;45.30;14.52;;;4.20;99.90;;;;;;4851059;29;20068;-72
2022/01/25 12:48:57;;;;;;;38.42;13.50;;;4.30;99.90;;;;;;4856574;29;20100;-71
2022/01/25 12:51:30;;;;;;;42.65;14.93;;;4.20;99.90;;;;;;4850525;29;20107;-71
2022/01/25 12:53:59;;;;;;;36.15;12.52;;;4.30;99.90;;;;;;4886383;29;20412;-71
2022/01/25 12:56:28;;;;;;;36.20;13.15;;;4.30;99.90;;;;;;4925025;29;20063;-71
2022/01/25 12:58:58;;;;;;;41.88;13.23;;;4.30;99.90;;;;;;4925927;29;20445;-71
2022/01/25 13:01:26;;;;;;;39.35;12.73;;;4.30;99.90;;;;;;4925321;29;20077;-73
2022/01/25 13:04:00;;;;;;;30.70;10.75;;;4.20;99.90;;;;;;4924748;29;20051;-72
2022/01/25 13:06:32;;;;;;;40.78;13.65;;;4.20;99.90;;;;;;4927178;29;20052;-71
2022/01/25 13:09:12;;;;;;;42.00;13.20;;;4.20;99.90;;;;;;4928993;29;20111;-70
2022/01/25 13:12:09;;;;;;;47.53;16.63;;;4.30;99.90;;;;;;4932788;29;20066;-72
2022/01/25 13:17:11;;;;;;;46.22;16.20;;;4.20;99.90;;;;;;4928051;29;20508;-73
2022/01/25 13:19:43;;;;;;;39.53;15.07;;;4.20;99.90;;;;;;4927432;29;20449;-71
2022/01/25 13:22:17;;;;;;;38.78;13.23;;;4.20;99.90;;;;;;4927968;29;20134;-72
2022/01/25 13:24:57;;;;;;;42.58;14.65;;;4.30;99.90;;;;;;4932017;29;20123;-71
2022/01/25 13:27:28;;;;;;;39.72;15.43;;;4.10;99.90;;;;;;4931136;29;20443;-70
2022/01/25 13:32:50;;;;;;;48.80;16.70;;;4.10;99.90;;;;;;4932482;29;20099;-70
2022/01/25 13:35:34;;;;;;;48.90;16.35;;;4.10;99.90;;;;;;4932428;29;20220;-72
2022/01/25 13:38:25;;;;;;;45.65;16.90;;;4.90;99.90;;;;;;4933176;29;20424;-71
2022/01/25 13:41:03;;;;;;;46.85;17.83;;;4.10;99.90;;;;;;4933081;29;20123;-72
2022/01/25 13:46:28;;;;;;;52.47;16.73;;;4.10;99.90;;;;;;4934632;29;20064;-73
2022/01/25 13:49:02;;;;;;;41.58;15.68;;;4.10;99.90;;;;;;4932907;29;20083;-70
2022/01/25 13:51:29;;;;;;;47.10;17.42;;;4.10;99.90;;;;;;4928914;29;20113;-72
2022/01/25 13:54:00;;;;;;;45.80;14.80;;;4.10;99.90;;;;;;4935198;29;20059;-78
2022/01/25 13:56:33;;;;;;;45.33;18.27;;;4.10;99.90;;;;;;4934525;29;20052;-75
2022/01/25 13:59:00;;;;;;;41.15;15.05;;;4.10;99.90;;;;;;4913673;29;20055;-76
2022/01/25 14:01:28;;;;;;;41.53;15.90;;;4.10;99.90;;;;;;4935018;29;20482;-70
2022/01/25 14:03:53;;;;;;;41.42;15.82;;;4.00;99.90;;;;;;4934672;29;20052;-75
2022/01/25 14:06:19;;;;;;;42.33;15.52;;;4.50;99.90;;;;;;4917366;29;20044;-72
2022/01/25 14:08:45;;;;;;;48.22;16.55;;;4.00;99.90;;;;;;4915535;29;20102;-75
2022/01/25 14:11:31;;;;;;;40.15;14.30;;;4.00;99.90;;;;;;4934348;29;20464;-73
2022/01/25 14:24:50;;;;;;;;;;;4.00;99.90;;;;;;4934891;29;20499;-74
2022/01/25 14:27:27;;;;;;;44.00;15.68;;;4.50;99.90;;;;;;4915815;29;20366;-71
2022/01/25 14:29:53;;;;;;;46.53;16.02;;;4.10;99.90;;;;;;4934966;29;20075;-81
2022/01/25 14:32:32;;;;;;;45.70;16.08;;;4.00;99.90;;;;;;4916410;29;20052;-74
2022/01/25 14:35:07;;;;;;;43.65;18.88;;;4.00;99.90;;;;;;4915171;29;20071;-72
2022/01/25 14:37:34;;;;;;;45.88;16.63;;;4.00;99.90;;;;;;4898903;29;20079;-77
2022/01/25 14:40:09;;;;;;;46.05;16.80;;;4.00;99.90;;;;;;4940842;29;20048;-72
2022/01/25 14:42:39;;;;;;;46.80;17.70;;;4.00;99.90;;;;;;4916570;29;20066;-71
2022/01/25 14:45:08;;;;;;;49.03;17.48;;;4.00;99.90;;;;;;4931634;29;20042;-71
2022/01/25 14:47:38;;;;;;;42.50;17.23;;;4.00;99.90;;;;;;4927944;29;20377;-74
2022/01/25 14:50:17;;;;;;;44.60;15.75;;;4.00;99.90;;;;;;4930431;29;20103;-74
2022/01/25 14:53:06;;;;;;;54.42;16.60;;;4.30;99.90;;;;;;4929194;29;20051;-74
2022/01/25 14:55:34;;;;;;;45.58;15.80;;;4.00;99.90;;;;;;4930824;29;20162;-72
2022/01/25 14:58:22;;;;;;;50.03;16.05;;;4.00;99.90;;;;;;4932953;29;20067;-74
2022/01/25 15:00:56;;;;;;;44.20;15.70;;;4.00;99.90;;;;;;4932998;29;20139;-73